createdAt,value
2023-01-22T00:00:55.254Z,18.65
2023-01-22T00:03:56.841Z,18.25
2023-01-22T00:06:58.536Z,19.27
2023-01-22T00:10:00.343Z,21.83
2023-01-22T00:13:01.979Z,20.77
2023-01-22T00:16:03.825Z,17.93
2023-01-22T00:19:05.473Z,18.48
2023-01-22T00:22:07.167Z,18.08
2023-01-22T00:25:11.402Z,19.77
2023-01-22T00:28:13.064Z,20.20
2023-01-22T00:31:15.699Z,17.30
2023-01-22T00:34:17.382Z,20.83
2023-01-22T00:37:20.327Z,21.40
2023-01-22T00:40:21.916Z,19.38
2023-01-22T00:43:23.501Z,18.13
2023-01-22T00:46:25.128Z,19.70
2023-01-22T00:49:26.719Z,20.02
2023-01-22T00:52:28.328Z,21.83
2023-01-22T00:55:30.495Z,18.37
2023-01-22T00:58:32.047Z,18.27
2023-01-22T01:01:33.707Z,19.58
2023-01-22T01:04:35.411Z,19.92
2023-01-22T01:07:36.980Z,18.80
2023-01-22T01:10:38.572Z,19.90
2023-01-22T01:13:42.873Z,19.63
2023-01-22T01:16:44.506Z,18.90
2023-01-22T01:19:46.115Z,20.60
2023-01-22T01:22:47.671Z,17.20
2023-01-22T01:25:49.289Z,17.70
2023-01-22T01:28:52.583Z,19.98
2023-01-22T01:31:54.806Z,18.38
2023-01-22T01:34:56.438Z,20.30
2023-01-22T01:37:58.017Z,18.93
2023-01-22T01:40:59.866Z,17.88
2023-01-22T01:44:08.454Z,21.67
2023-01-22T01:47:27.130Z,20.00
2023-01-22T01:50:28.828Z,16.30
2023-01-22T01:53:31.213Z,17.38
2023-01-22T01:56:39.454Z,16.83
2023-01-22T01:59:41.250Z,18.80
2023-01-22T02:02:43.049Z,16.63
2023-01-22T02:05:44.659Z,15.57
2023-01-22T02:08:48.051Z,15.07
2023-01-22T02:11:50.154Z,16.92
2023-01-22T02:14:51.788Z,15.98
2023-01-22T02:17:53.388Z,16.43
2023-01-22T02:20:59.598Z,16.13
2023-01-22T02:24:01.630Z,15.98
2023-01-22T02:27:03.489Z,15.63
2023-01-22T02:30:05.992Z,14.93
2023-01-22T02:33:11.132Z,14.75
2023-01-22T02:36:12.778Z,17.95
2023-01-22T02:39:14.393Z,13.53
2023-01-22T02:42:15.981Z,14.77
2023-01-22T02:45:17.602Z,15.70
2023-01-22T02:48:19.252Z,15.33
2023-01-22T02:51:20.947Z,16.08
2023-01-22T02:54:22.521Z,16.65
2023-01-22T02:57:24.097Z,13.85
2023-01-22T03:00:25.664Z,13.55
2023-01-22T03:03:27.257Z,16.63
2023-01-22T03:06:29.658Z,14.52
2023-01-22T03:09:31.248Z,15.20
2023-01-22T03:12:51.478Z,14.10
2023-01-22T03:16:11.417Z,15.25
2023-01-22T03:19:31.652Z,15.33
2023-01-22T03:22:33.242Z,12.55
2023-01-22T03:25:34.945Z,13.85
2023-01-22T03:28:36.795Z,12.63
2023-01-22T03:31:38.490Z,14.38
2023-01-22T03:34:40.145Z,15.05
2023-01-22T03:37:41.726Z,15.20
2023-01-22T03:40:43.382Z,15.50
2023-01-22T03:43:45.672Z,13.20
2023-01-22T03:46:47.226Z,14.60
2023-01-22T03:49:48.833Z,15.10
2023-01-22T03:52:50.431Z,15.48
2023-01-22T03:56:02.086Z,14.52
2023-01-22T03:59:03.740Z,15.68
2023-01-22T04:02:05.360Z,15.02
2023-01-22T04:05:07.613Z,16.55
2023-01-22T04:08:09.252Z,14.80
2023-01-22T04:11:11.438Z,17.83
2023-01-22T04:14:13.008Z,14.63
2023-01-22T04:17:14.616Z,15.20
2023-01-22T04:20:16.782Z,16.47
2023-01-22T04:23:19.217Z,16.48
2023-01-22T04:26:20.802Z,17.50
2023-01-22T04:29:22.396Z,16.65
2023-01-22T04:32:24.035Z,15.73
2023-01-22T04:35:25.604Z,14.95
2023-01-22T04:38:27.200Z,15.35
2023-01-22T04:41:28.758Z,15.27
2023-01-22T04:44:30.353Z,14.23
2023-01-22T04:47:31.971Z,13.10
2023-01-22T04:50:33.743Z,13.37
2023-01-22T04:53:35.412Z,14.23
2023-01-22T04:56:37.004Z,16.40
2023-01-22T04:59:38.748Z,14.10
2023-01-22T05:02:40.427Z,14.57
2023-01-22T05:05:42.004Z,14.80
2023-01-22T05:08:43.645Z,14.18
2023-01-22T05:11:45.260Z,15.27
2023-01-22T05:14:46.800Z,14.43
2023-01-22T05:17:48.401Z,13.30
2023-01-22T05:20:49.989Z,14.20
2023-01-22T05:23:51.559Z,14.25
2023-01-22T05:26:53.137Z,14.57
2023-01-22T05:29:54.734Z,16.88
2023-01-22T05:32:57.023Z,12.93
2023-01-22T05:35:59.444Z,12.60
2023-01-22T05:39:01.115Z,15.82
2023-01-22T05:42:02.724Z,14.90
2023-01-22T05:45:04.723Z,16.17
2023-01-22T05:48:06.342Z,16.63
2023-01-22T05:51:08.196Z,16.87
2023-01-22T05:54:09.924Z,14.07
2023-01-22T05:57:11.626Z,16.60
2023-01-22T06:00:13.872Z,13.95
2023-01-22T06:03:15.440Z,15.00
2023-01-22T06:06:17.031Z,16.98
2023-01-22T06:09:18.691Z,16.00
2023-01-22T06:12:20.447Z,16.90
2023-01-22T06:15:22.028Z,14.80
2023-01-22T06:18:24.038Z,14.52
2023-01-22T06:21:25.607Z,14.38
2023-01-22T06:24:27.185Z,15.25
2023-01-22T06:27:28.856Z,14.65
2023-01-22T06:30:30.451Z,15.43
2023-01-22T06:33:35.701Z,13.47
2023-01-22T06:36:37.278Z,13.68
2023-01-22T06:39:38.894Z,13.52
2023-01-22T06:42:40.479Z,15.83
2023-01-22T06:45:42.115Z,14.85
2023-01-22T06:48:43.905Z,14.43
2023-01-22T06:51:45.486Z,12.65
2023-01-22T06:54:47.041Z,14.52
2023-01-22T06:57:48.628Z,13.20
2023-01-22T07:00:50.246Z,13.23
2023-01-22T07:03:52.625Z,15.67
2023-01-22T07:06:54.220Z,14.63
2023-01-22T07:09:55.821Z,16.60
2023-01-22T07:12:59.046Z,15.07
2023-01-22T07:16:04.477Z,15.73
2023-01-22T07:19:06.103Z,13.25
2023-01-22T07:22:07.683Z,14.52
2023-01-22T07:25:09.560Z,14.23
2023-01-22T07:28:11.287Z,14.57
2023-01-22T07:31:13.081Z,13.45
2023-01-22T07:34:14.728Z,14.57
2023-01-22T07:37:16.355Z,14.07
2023-01-22T07:40:18.168Z,15.02
2023-01-22T07:43:19.932Z,14.10
2023-01-22T07:46:21.894Z,13.65
2023-01-22T07:49:23.567Z,15.05
2023-01-22T07:52:28.848Z,13.73
2023-01-22T07:55:31.416Z,13.75
2023-01-22T07:58:33.074Z,14.18
2023-01-22T08:01:34.654Z,13.25
2023-01-22T08:04:36.280Z,14.73
2023-01-22T08:07:41.118Z,14.30
2023-01-22T08:10:44.132Z,14.43
2023-01-22T08:13:45.788Z,13.48
2023-01-22T08:16:47.541Z,13.35
2023-01-22T08:19:49.120Z,13.57
2023-01-22T08:22:54.287Z,15.35
2023-01-22T08:26:00.290Z,13.80
2023-01-22T08:29:04.879Z,13.43
2023-01-22T08:32:07.671Z,15.10
2023-01-22T08:35:09.884Z,13.57
2023-01-22T08:38:11.468Z,15.10
2023-01-22T08:41:13.083Z,14.75
2023-01-22T08:44:14.848Z,14.25
2023-01-22T08:47:16.531Z,14.30
2023-01-22T08:50:18.863Z,15.75
2023-01-22T08:53:24.199Z,15.57
2023-01-22T08:56:25.809Z,14.25
2023-01-22T08:59:29.366Z,12.60
2023-01-22T09:02:32.662Z,15.63
2023-01-22T09:05:34.252Z,14.85
2023-01-22T09:08:35.831Z,15.30
2023-01-22T09:11:37.521Z,15.03
2023-01-22T09:14:39.118Z,14.55
2023-01-22T09:17:40.911Z,15.10
2023-01-22T09:20:42.522Z,14.65
2023-01-22T09:23:47.812Z,16.58
2023-01-22T09:26:49.415Z,14.15
2023-01-22T09:29:51.056Z,13.60
2023-01-22T09:32:52.879Z,16.07
2023-01-22T09:35:54.486Z,15.60
2023-01-22T09:38:56.196Z,13.20
2023-01-22T09:41:57.786Z,14.15
2023-01-22T09:45:02.813Z,15.67
2023-01-22T09:48:07.932Z,13.75
2023-01-22T09:51:15.822Z,14.93
2023-01-22T09:54:20.436Z,15.90
2023-01-22T09:57:31.334Z,17.20
2023-01-22T10:00:38.918Z,15.25
2023-01-22T10:03:42.290Z,15.98
2023-01-22T10:06:45.545Z,15.38
2023-01-22T10:09:54.324Z,16.50
2023-01-22T10:13:15.839Z,15.05
2023-01-22T10:16:17.507Z,15.38
2023-01-22T10:19:33.079Z,15.98
2023-01-22T10:22:34.669Z,18.70
2023-01-22T10:25:36.250Z,15.15
2023-01-22T10:28:37.831Z,15.85
2023-01-22T10:31:41.271Z,16.02
2023-01-22T10:34:42.913Z,14.83
2023-01-22T10:37:51.893Z,16.38
2023-01-22T10:41:01.220Z,16.48
2023-01-22T10:44:09.824Z,21.48
2023-01-22T10:47:21.077Z,18.20
2023-01-22T10:50:23.124Z,16.58
2023-01-22T10:53:30.154Z,16.75
2023-01-22T10:56:33.570Z,16.40
2023-01-22T10:59:35.409Z,17.35
2023-01-22T11:02:41.066Z,18.23
2023-01-22T11:05:44.094Z,17.00
2023-01-22T11:08:50.020Z,21.73
2023-01-22T11:11:57.718Z,18.27
2023-01-22T11:15:11.570Z,19.48
2023-01-22T11:18:32.259Z,16.08
2023-01-22T11:21:47.460Z,20.57
2023-01-22T11:24:49.147Z,18.55
2023-01-22T11:27:59.602Z,19.50
2023-01-22T11:31:06.655Z,18.63
2023-01-22T11:34:28.979Z,19.30
2023-01-22T11:37:48.832Z,17.73
2023-01-22T11:41:08.505Z,18.08
2023-01-22T11:44:21.980Z,19.48
2023-01-22T11:47:23.517Z,21.13
2023-01-22T11:50:39.901Z,20.80
2023-01-22T11:54:01.028Z,20.55
2023-01-22T11:57:05.628Z,22.52
2023-01-22T12:00:20.131Z,23.63
2023-01-22T12:03:44.589Z,23.00
2023-01-22T12:06:58.798Z,22.23
2023-01-22T12:10:15.667Z,26.13
2023-01-22T12:13:26.817Z,24.57
2023-01-22T12:16:38.903Z,24.63
2023-01-22T12:19:53.238Z,23.90
2023-01-22T12:23:01.417Z,24.67
2023-01-22T12:26:20.428Z,24.83
2023-01-22T12:29:23.876Z,28.83
2023-01-22T12:32:25.579Z,26.83
2023-01-22T12:35:30.155Z,29.75
2023-01-22T12:38:54.737Z,30.37
2023-01-22T12:42:32.379Z,26.52
2023-01-22T12:45:52.564Z,30.55
2023-01-22T12:49:04.767Z,28.10
2023-01-22T12:52:36.833Z,28.60
2023-01-22T12:55:43.953Z,27.38
2023-01-22T12:58:45.797Z,27.10
2023-01-22T13:01:57.891Z,30.15
2023-01-22T13:05:32.152Z,28.83
2023-01-22T13:08:41.783Z,28.13
2023-01-22T13:11:46.407Z,26.05
2023-01-22T13:14:48.056Z,27.27
2023-01-22T13:18:07.631Z,28.47
2023-01-22T13:21:14.339Z,30.65
2023-01-22T13:24:17.850Z,24.77
2023-01-22T13:27:33.843Z,28.27
2023-01-22T13:30:35.521Z,32.53
2023-01-22T13:33:37.153Z,27.50
2023-01-22T13:36:39.734Z,29.85
2023-01-22T13:39:41.340Z,27.83
2023-01-22T13:42:44.581Z,30.40
2023-01-22T13:45:46.254Z,27.67
2023-01-22T13:48:47.851Z,27.60
2023-01-22T13:51:49.830Z,26.30
2023-01-22T13:55:06.678Z,26.57
2023-01-22T13:58:48.076Z,24.45
2023-01-22T14:01:50.648Z,27.20
2023-01-22T14:04:52.331Z,25.42
2023-01-22T14:08:05.931Z,26.87
2023-01-22T14:11:07.504Z,24.33
2023-01-22T14:14:17.073Z,25.17
2023-01-22T14:17:30.037Z,25.55
2023-01-22T14:20:31.626Z,18.70
2023-01-22T14:23:33.271Z,21.80
2023-01-22T14:26:34.908Z,21.40
2023-01-22T14:29:36.501Z,24.05
2023-01-22T14:32:38.173Z,26.45
2023-01-22T14:35:39.728Z,22.98
2023-01-22T14:38:41.343Z,25.10
2023-01-22T14:41:42.985Z,20.83
2023-01-22T14:44:44.570Z,26.27
2023-01-22T14:47:49.805Z,27.50
2023-01-22T14:50:51.443Z,25.27
2023-01-22T14:53:53.107Z,24.70
2023-01-22T14:56:56.049Z,25.10
2023-01-22T14:59:57.664Z,25.88
2023-01-22T15:02:59.437Z,24.33
2023-01-22T15:06:04.069Z,27.70
2023-01-22T15:09:06.268Z,25.00
2023-01-22T15:12:08.110Z,23.42
2023-01-22T15:15:14.466Z,24.13
2023-01-22T15:18:16.083Z,27.67
2023-01-22T15:21:17.663Z,22.08
2023-01-22T15:24:19.293Z,26.90
2023-01-22T15:27:20.949Z,27.33
2023-01-22T15:30:22.675Z,23.47
2023-01-22T15:33:24.703Z,27.60
2023-01-22T15:36:26.403Z,28.23
2023-01-22T15:39:27.972Z,27.77
2023-01-22T15:42:29.620Z,26.55
2023-01-22T15:45:31.350Z,26.20
2023-01-22T15:48:32.973Z,26.00
2023-01-22T15:51:35.029Z,28.03
2023-01-22T15:54:36.655Z,27.38
2023-01-22T15:57:38.237Z,31.20
2023-01-22T16:00:39.823Z,32.97
2023-01-22T16:03:41.429Z,30.70
2023-01-22T16:06:43.095Z,31.38
2023-01-22T16:09:44.757Z,30.60
2023-01-22T16:12:46.323Z,33.55
2023-01-22T16:15:57.110Z,32.17
2023-01-22T16:19:00.212Z,34.15
2023-01-22T16:22:01.802Z,35.60
2023-01-22T16:25:03.553Z,39.97
2023-01-22T16:28:05.336Z,44.80
2023-01-22T16:31:09.640Z,40.50
2023-01-22T16:34:13.882Z,45.90
2023-01-22T16:37:15.464Z,46.70
2023-01-22T16:40:18.546Z,45.67
2023-01-22T16:43:20.276Z,44.30
2023-01-22T16:46:23.535Z,43.78
2023-01-22T16:49:27.680Z,41.90
2023-01-22T16:52:29.394Z,44.93
2023-01-22T16:55:30.979Z,37.60
2023-01-22T16:58:32.588Z,41.13
2023-01-22T17:01:34.227Z,39.20
2023-01-22T17:04:35.869Z,40.57
2023-01-22T17:07:37.483Z,40.80
2023-01-22T17:10:39.105Z,41.65
2023-01-22T17:13:40.732Z,43.67
2023-01-22T17:16:46.275Z,36.13
2023-01-22T17:19:47.842Z,39.08
2023-01-22T17:22:49.449Z,38.95
2023-01-22T17:25:51.639Z,40.05
2023-01-22T17:28:53.366Z,40.00
2023-01-22T17:31:55.968Z,45.17
2023-01-22T17:34:57.691Z,38.55
2023-01-22T17:37:59.257Z,41.03
2023-01-22T17:41:20.842Z,39.67
2023-01-22T17:44:22.429Z,37.90
2023-01-22T17:47:24.030Z,38.55
2023-01-22T17:50:25.619Z,38.22
2023-01-22T17:53:27.198Z,39.15
2023-01-22T17:56:43.103Z,38.75
2023-01-22T17:59:44.789Z,39.72
2023-01-22T18:02:46.409Z,38.97
2023-01-22T18:05:48.113Z,42.33
2023-01-22T18:08:49.712Z,39.50
2023-01-22T18:11:51.339Z,37.33
2023-01-22T18:14:53.128Z,39.03
2023-01-22T18:17:54.764Z,42.20
2023-01-22T18:20:56.399Z,41.88
2023-01-22T18:23:59.879Z,42.38
2023-01-22T18:27:02.269Z,35.88
2023-01-22T18:30:04.379Z,42.23
2023-01-22T18:33:06.062Z,41.08
2023-01-22T18:36:10.976Z,44.88
2023-01-22T18:39:17.184Z,46.47
2023-01-22T18:42:18.834Z,48.33
2023-01-22T18:45:20.603Z,46.15
2023-01-22T18:48:23.141Z,45.35
2023-01-22T18:51:25.082Z,50.38
2023-01-22T18:54:26.699Z,48.00
2023-01-22T18:57:35.359Z,47.38
2023-01-22T19:00:37.413Z,46.95
2023-01-22T19:03:40.391Z,50.10
2023-01-22T19:06:44.163Z,49.88
2023-01-22T19:09:45.942Z,48.38
2023-01-22T19:12:47.511Z,47.33
2023-01-22T19:15:49.131Z,49.70
2023-01-22T19:19:02.231Z,50.10
2023-01-22T19:22:06.931Z,51.80
2023-01-22T19:25:09.150Z,48.40
2023-01-22T19:28:10.731Z,52.53
2023-01-22T19:31:22.697Z,48.95
2023-01-22T19:34:24.852Z,49.22
2023-01-22T19:37:27.646Z,47.28
2023-01-22T19:40:29.467Z,47.75
2023-01-22T19:43:31.088Z,47.92
2023-01-22T19:46:32.876Z,45.35
2023-01-22T19:49:34.543Z,44.07
2023-01-22T19:52:36.144Z,50.88
2023-01-22T19:55:38.154Z,44.00
2023-01-22T19:58:39.731Z,47.20
2023-01-22T20:01:41.662Z,45.97
2023-01-22T20:04:43.357Z,45.97
2023-01-22T20:07:45.445Z,48.22
2023-01-22T20:10:47.121Z,53.58
2023-01-22T20:13:48.956Z,47.47
2023-01-22T20:16:50.832Z,50.97
2023-01-22T20:19:52.484Z,48.78
2023-01-22T20:22:54.063Z,52.63
2023-01-22T20:25:55.898Z,45.67
2023-01-22T20:28:57.491Z,47.25
2023-01-22T20:31:59.458Z,48.42
2023-01-22T20:35:05.534Z,50.77
2023-01-22T20:38:07.082Z,44.42
2023-01-22T20:41:11.509Z,43.03
2023-01-22T20:44:13.282Z,47.03
2023-01-22T20:47:14.915Z,45.07
2023-01-22T20:50:20.040Z,45.40
2023-01-22T20:53:22.835Z,43.67
2023-01-22T20:56:28.437Z,46.33
2023-01-22T20:59:36.534Z,42.67
2023-01-22T21:02:38.142Z,38.42
2023-01-22T21:05:44.099Z,44.20
2023-01-22T21:08:48.823Z,39.97
2023-01-22T21:11:50.414Z,40.47
2023-01-22T21:14:55.244Z,40.65
2023-01-22T21:17:56.907Z,43.90
2023-01-22T21:20:58.522Z,40.17
2023-01-22T21:24:00.225Z,36.97
2023-01-22T21:27:01.915Z,38.88
2023-01-22T21:30:04.027Z,37.30
2023-01-22T21:33:05.636Z,36.50
2023-01-22T21:36:12.234Z,33.43
2023-01-22T21:39:15.084Z,35.35
2023-01-22T21:42:35.179Z,33.00
2023-01-22T21:45:59.173Z,34.70
2023-01-22T21:49:16.376Z,36.45
2023-01-22T21:52:18.000Z,35.80
2023-01-22T21:55:21.180Z,33.00
2023-01-22T21:58:22.823Z,33.95
2023-01-22T22:01:25.117Z,35.58
2023-01-22T22:04:27.477Z,33.03
2023-01-22T22:07:29.055Z,37.23
2023-01-22T22:10:30.692Z,37.38
2023-01-22T22:13:35.079Z,37.42
2023-01-22T22:16:36.927Z,45.53
2023-01-22T22:19:38.754Z,39.63
2023-01-22T22:22:40.395Z,41.40
2023-01-22T22:25:41.998Z,43.70
2023-01-22T22:28:43.573Z,46.72
2023-01-22T22:31:45.194Z,44.55
2023-01-22T22:34:46.771Z,47.33
2023-01-22T22:37:52.648Z,44.83
2023-01-22T22:41:01.527Z,45.23
2023-01-22T22:44:03.241Z,44.63
2023-01-22T22:47:05.098Z,42.60
2023-01-22T22:50:07.555Z,43.30
2023-01-22T22:53:09.105Z,47.80
2023-01-22T22:56:10.998Z,44.05
2023-01-22T22:59:12.671Z,41.72
2023-01-22T23:02:14.284Z,38.55
2023-01-22T23:05:15.863Z,37.47
2023-01-22T23:08:17.489Z,36.60
2023-01-22T23:11:20.809Z,39.47
2023-01-22T23:14:22.882Z,36.63
2023-01-22T23:17:24.463Z,38.40
2023-01-22T23:20:26.149Z,42.67
2023-01-22T23:23:27.774Z,42.17
2023-01-22T23:26:30.032Z,38.30
2023-01-22T23:29:31.744Z,42.35
2023-01-22T23:32:33.477Z,38.07
2023-01-22T23:35:35.076Z,41.08
2023-01-22T23:38:36.720Z,41.35
2023-01-22T23:41:38.368Z,42.33
2023-01-22T23:44:39.988Z,42.80
2023-01-22T23:47:42.422Z,41.40
2023-01-22T23:50:45.169Z,42.58
2023-01-22T23:53:48.643Z,37.93
2023-01-22T23:56:50.256Z,42.22
2023-01-22T23:59:51.893Z,37.17
